Flight Track Log - Related Links

Times and Time Zones

All times are in EDT time to prevent confusion due to time zone crossing. See the KAP444 flight status page for this flight to view local times or setup timezone preferences in your user account.

Time Position Orientation Groundspeed Altitude Reporting Facility
EDT Latitude Longitude Course Direction KTS MPH feet Rate Location/Type
Mon 07:06:26 AM 44.5722 -75.2756 148° Southeast 141 162 4,600  Level Boston Center
Mon 07:07:26 AM 44.5436 -75.2567 155° Southeast 126 145 5,300 700 Climbing Boston Center
Mon 07:08:26 AM 44.5172 -75.2322 147° Southeast 114 131 6,000 700 Climbing Boston Center
Mon 07:09:26 AM 44.4864 -75.2103 153° Southeast 114 131 6,700 650 Climbing Boston Center
Mon 07:10:26 AM 44.4600 -75.1858 147° Southeast 114 131 7,300 450 Climbing Boston Center
Mon 07:11:00 AM 44.4750 -75.2812 148° Southeast  Level Estimated
Mon 07:11:26 AM 44.4292 -75.1642 153° Southeast 114 131 7,600  Level Boston Center
Mon 07:12:26 AM 44.3944 -75.1306 145° Southeast 129 148 7,500 -50 Descending Boston Center
Mon 07:13:26 AM 44.3597 -75.0969 145° Southeast 144 166 7,500  Level Boston Center
Mon 07:14:26 AM 44.3253 -75.0636 145° Southeast 144 166 7,500  Level Boston Center
Mon 07:15:27 AM 44.2883 -75.0386 154° Southeast 144 166 7,500  Level Boston Center
Mon 07:16:26 AM 44.2514 -75.0053 147° Southeast 149 171 7,500  Level Boston Center
Mon 07:17:26 AM 44.2125 -74.9744 150° Southeast 149 171 7,500  Level Boston Center
Mon 07:18:26 AM 44.1778 -74.9442 148° Southeast 154 177 7,500  Level Boston Center
Mon 07:19:26 AM 44.1389 -74.9164 153° Southeast 154 177 7,500  Level Boston Center
Mon 07:20:26 AM 44.1019 -74.8889 152° Southeast 154 177 7,500  Level Boston Center
Mon 07:21:26 AM 44.0650 -74.8586 150° Southeast 154 177 7,500  Level Boston Center
Mon 07:22:26 AM 44.0364 -74.8342 148° Southeast 154 177 7,500  Level Boston Center
Mon 07:23:26 AM 43.9933 -74.8008 151° Southeast 154 177 7,500  Level Boston Center
Mon 07:24:26 AM 43.9564 -74.7706 149° Southeast 154 177 7,500  Level Boston Center
Mon 07:25:26 AM 43.9175 -74.7400 150° Southeast 154 177 7,500 50 Level Boston Center
Mon 07:26:26 AM 43.8825 -74.7100 148° Southeast 154 177 7,600 50 Climbing Boston Center
Mon 07:27:26 AM 43.8456 -74.6828 152° Southeast 154 177 7,600  Level Boston Center
Mon 07:28:26 AM 43.8086 -74.6497 147° Southeast 154 177 7,600  Level Boston Center
Mon 07:29:26 AM 43.7717 -74.6194 149° Southeast 154 177 7,600  Level Boston Center
Mon 07:30:26 AM 43.7347 -74.5894 150° Southeast 154 177 7,600  Level Boston Center
Mon 07:31:26 AM 43.6978 -74.5594 150° Southeast 154 177 7,600  Level Boston Center
Mon 07:32:26 AM 43.6608 -74.5294 150° Southeast 154 177 7,600  Level Boston Center
Mon 07:33:26 AM 43.6239 -74.5022 152° Southeast 154 177 7,600  Level Boston Center
Mon 07:34:26 AM 43.5889 -74.4725 148° Southeast 154 177 7,600  Level Boston Center
Mon 07:35:26 AM 43.5519 -74.4425 150° Southeast 154 177 7,600  Level Boston Center
Mon 07:36:26 AM 43.5150 -74.4128 150° Southeast 154 177 7,600  Level Boston Center
Mon 07:37:26 AM 43.4781 -74.3828 149° Southeast 154 177 7,600  Level Boston Center
Mon 07:38:26 AM 43.4411 -74.3531 150° Southeast 154 177 7,600  Level Boston Center
Mon 07:39:07 AM 43.4164 -74.3322 149° Southeast 155 178 7,600  Level Boston Center
Mon 07:39:26 AM 43.4039 -74.3233 153° Southeast 154 177 7,600  Level Boston Center
Mon 07:39:43 AM 43.3917 -74.3117 145° Southeast 156 180 7,600  Level Boston Center
Mon 07:40:26 AM 43.3733 -74.2881 137° Southeast 154 177 7,600  Level Boston Center
Mon 07:40:44 AM 43.3608 -74.2792 153° Southeast 154 177 7,600  Level Boston Center
Mon 07:41:39 AM 43.3281 -74.2467 144° Southeast 154 177 7,600  Level Boston Center
Mon 07:42:26 AM 43.3014 -74.2231 147° Southeast 154 177 7,600  Level Boston Center
Mon 07:43:26 AM 43.2622 -74.1906 149° Southeast 159 183 7,600 -100 Level Boston Center
Mon 07:44:26 AM 43.2272 -74.1611 148° Southeast 159 183 7,400 -350 Descending Boston Center
Mon 07:45:26 AM 43.1861 -74.1258 148° Southeast 164 189 6,900 -480 Descending Boston Center
Mon 07:45:41 AM 43.1758 -74.1197 157° South 168 193 6,800 -400 Descending Boston Center
Mon 07:46:26 AM 43.1492 -74.0936 144° Southeast 169 194 6,500 -393 Descending Boston Center
Mon 07:46:42 AM 43.1367 -74.0847 153° Southeast 170 196 6,400 -500 Descending Boston Center
Mon 07:47:26 AM 43.1058 -74.0525 143° Southeast 169 194 6,000 -500 Descending Boston Center
Mon 07:47:42 AM 43.0975 -74.0494 165° South 169 194 5,900 -400 Descending Boston Center
Mon 07:48:26 AM 43.0708 -74.0231 144° Southeast 164 189 5,600 -393 Descending Boston Center
Mon 07:48:43 AM 43.0564 -74.0114 149° Southeast 171 197 5,500 -500 Descending Boston Center
Mon 07:49:26 AM 43.0278 -73.9853 146° Southeast 164 189 5,100 -500 Descending Boston Center
Mon 07:49:43 AM 43.0131 -73.9764 156° South 170 196 5,000 -462 Descending Boston Center
Mon 07:50:44 AM 42.9761 -73.9442 147° Southeast 172 198 4,500 -466 Descending Boston Center
Mon 07:51:26 AM 42.9472 -73.9122 141° Southeast 170 196 4,200 -492 Descending Boston Center
Mon 07:51:45 AM 42.9350 -73.9033 152° Southeast 174 200 4,000 -600 Descending Boston Center
Mon 07:52:26 AM 42.9125 -73.8744 137° Southeast 170 196 3,600 -600 Descending Boston Center
Mon 07:52:45 AM 42.9000 -73.8572 135° Southeast 175 201 3,400 -484 Descending Boston Center
Mon 07:53:28 AM 42.8756 -73.8283 139° Southeast 175 201 3,100 -590 Descending Boston Center
Mon 07:53:46 AM 42.8608 -73.8222 163° South 168 193 2,800 -987 Descending Boston Center
Mon 07:54:47 AM 42.8214 -73.8131 170° South 141 162 1,800 -893 Descending Boston Center
Mon 07:55:47 AM 42.7861 -73.8094 176° South 109 125 1,000 -800 Descending Boston Center
Mon 07:57:00 AM 42.7491 -73.8020 173° South  Level Estimated
Mon 08:04:00 AM 42.7491 -73.8020 160° South  Level Estimated
Mon 08:05:00 AM 42.7491 -73.8020 160° South  Level Estimated
Mon 08:06:00 AM 42.7491 -73.8020 160° South  Level Estimated
Mon 08:07:00 AM 42.7491 -73.8020 160° South  Level Estimated
Mon 08:08:00 AM 42.7491 -73.8020 160° South  Level Estimated
Mon 08:09:00 AM 42.7491 -73.8020 160° South  Level Estimated
Mon 08:10:00 AM 42.7491 -73.8020 160° South  Level Estimated
Mon 08:11:00 AM 42.7491 -73.8020 160° South  Level Estimated
Mon 08:12:00 AM 42.7491 -73.8020 160° South  Level Estimated
Mon 08:13:00 AM 42.7491 -73.8020 160° South  Level Estimated
Mon 08:14:00 AM 42.7491 -73.8020 160° South  Level Estimated
Mon 08:15:00 AM 42.7491 -73.8020 160° South  Level Estimated
Mon 08:16:00 AM 42.7491 -73.8020 160° South  Level Estimated
Mon 08:17:00 AM 42.7491 -73.8020 160° South  Level Estimated

Login

Don't have an account? Register now (free) for customized features, flight alerts, and more!